Time;durP1;ratioP1;P1;durP2;ratioP2;P2;SDS_P1;SDS_P2;PMS_P1;PMS_P2;Temp;Humidity;BMP_temperature;BMP_pressure;BME280_temperature;BME280_humidity;BME280_pressure;Samples;Min_cycle;Max_cycle;Signal;HPM_P1;HPM_P2
2023/08/10 00:02:22;;;;;;;3.05;2.10;;;;;;;;;;5064315;28;20049;-80
2023/08/10 00:04:54;;;;;;;3.50;2.42;;;;;;;;;;5065775;28;20055;-79
2023/08/10 00:07:27;;;;;;;6.53;2.17;;;;;;;;;;5065178;28;20411;-80
2023/08/10 00:10:01;;;;;;;3.08;2.03;;;;;;;;;;5065926;28;20051;-81
2023/08/10 00:12:34;;;;;;;5.53;2.17;;;;;;;;;;5064885;28;20504;-80
2023/08/10 00:15:08;;;;;;;4.93;2.78;;;;;;;;;;5063421;28;20071;-79
2023/08/10 00:17:41;;;;;;;5.60;3.15;;;;;;;;;;5064885;28;20057;-79
2023/08/10 00:20:15;;;;;;;6.45;2.92;;;;;;;;;;5063631;28;20065;-79
2023/08/10 00:22:46;;;;;;;5.20;2.67;;;;;;;;;;5064095;28;20416;-79
2023/08/10 00:25:18;;;;;;;9.85;3.75;;;;;;;;;;5063864;28;20818;-80
2023/08/10 00:27:50;;;;;;;7.10;3.70;;;;;;;;;;5063305;28;20063;-80
2023/08/10 00:30:25;;;;;;;13.68;4.20;;;;;;;;;;5063747;28;20352;-79
2023/08/10 00:32:59;;;;;;;7.40;4.45;;;;;;;;;;5062558;28;20511;-79
2023/08/10 00:35:32;;;;;;;8.10;4.28;;;;;;;;;;5062845;28;20052;-79
2023/08/10 00:38:03;;;;;;;8.82;4.53;;;;;;;;;;5063374;28;20052;-78
2023/08/10 00:40:37;;;;;;;8.38;3.17;;;;;;;;;;5047827;28;20048;-78
2023/08/10 00:43:10;;;;;;;7.22;2.53;;;;;;;;;;5063990;28;20059;-79
2023/08/10 00:45:43;;;;;;;8.90;3.97;;;;;;;;;;5065536;28;20562;-79
2023/08/10 00:48:16;;;;;;;10.32;3.60;;;;;;;;;;5063348;28;20457;-81
2023/08/10 00:50:52;;;;;;;5.38;3.22;;;;;;;;;;5061526;28;20379;-79
2023/08/10 00:53:26;;;;;;;5.18;2.60;;;;;;;;;;5062736;28;20061;-78
2023/08/10 00:56:00;;;;;;;;;;;;;;;;;;5066474;28;20056;-79
2023/08/10 00:58:36;;;;;;;4.35;2.95;;;;;;;;;;5065340;28;19931;-78
2023/08/10 01:01:10;;;;;;;2.58;1.48;;;;;;;;;;5062787;28;20049;-76
2023/08/10 01:03:42;;;;;;;2.70;1.77;;;;;;;;;;5061126;28;20049;-77
2023/08/10 01:06:26;;;;;;;4.53;1.65;;;;;;;;;;5063739;28;20310;-77
2023/08/10 01:09:24;;;;;;;6.53;1.80;;;;;;;;;;5063532;28;20411;-76
2023/08/10 01:12:32;;;;;;;2.78;1.67;;;;;;;;;;5063696;28;20048;-79
2023/08/10 01:15:19;;;;;;;3.53;1.90;;;;;;;;;;5064381;28;20076;-78
2023/08/10 01:18:00;;;;;;;5.78;2.15;;;;;;;;;;5064264;28;20037;-76
2023/08/10 01:20:32;;;;;;;4.10;1.67;;;;;;;;;;5064767;28;20072;-78
2023/08/10 01:23:06;;;;;;;2.38;1.67;;;;;;;;;;5063568;28;20056;-77
2023/08/10 01:25:40;;;;;;;3.00;1.67;;;;;;;;;;5063607;28;20044;-77
2023/08/10 01:28:13;;;;;;;2.67;1.48;;;;;;;;;;5063130;28;20040;-77
2023/08/10 01:30:46;;;;;;;3.05;1.80;;;;;;;;;;5063763;28;20048;-77
2023/08/10 01:33:20;;;;;;;2.55;1.67;;;;;;;;;;5061851;28;20052;-76
2023/08/10 01:35:57;;;;;;;3.20;1.67;;;;;;;;;;5063217;28;20056;-77
2023/08/10 01:38:30;;;;;;;3.85;1.73;;;;;;;;;;5064063;28;20052;-77
2023/08/10 01:41:04;;;;;;;;;;;;;;;;;;5064029;28;20573;-75
2023/08/10 01:43:38;;;;;;;3.83;1.75;;;;;;;;;;5066286;28;20515;-75
2023/08/10 01:46:16;;;;;;;6.57;1.70;;;;;;;;;;5062501;28;20489;-75
2023/08/10 01:48:52;;;;;;;2.55;1.75;;;;;;;;;;5060244;28;20070;-75
2023/08/10 01:51:27;;;;;;;3.05;1.85;;;;;;;;;;5062846;28;20059;-77
2023/08/10 01:54:03;;;;;;;4.38;1.75;;;;;;;;;;5062722;28;20044;-75
2023/08/10 01:56:35;;;;;;;7.05;2.30;;;;;;;;;;5060973;28;20855;-77
2023/08/10 01:59:06;;;;;;;4.47;1.92;;;;;;;;;;5060035;28;20063;-75
2023/08/10 02:01:39;;;;;;;3.60;2.17;;;;;;;;;;5042790;28;20510;-77
2023/08/10 02:04:12;;;;;;;4.90;2.72;;;;;;;;;;5059866;28;20056;-77
2023/08/10 02:06:46;;;;;;;13.98;5.70;;;;;;;;;;5060760;28;20048;-77
2023/08/10 02:09:18;;;;;;;14.10;8.85;;;;;;;;;;5062352;28;20056;-77
2023/08/10 02:11:48;;;;;;;23.73;11.90;;;;;;;;;;5058705;28;20043;-77
2023/08/10 02:14:21;;;;;;;9.32;5.57;;;;;;;;;;5061038;28;20052;-76
2023/08/10 02:16:52;;;;;;;12.80;7.68;;;;;;;;;;5062638;28;20056;-77
2023/08/10 02:19:23;;;;;;;7.05;3.80;;;;;;;;;;5063091;28;20044;-77
2023/08/10 02:21:53;;;;;;;30.38;15.63;;;;;;;;;;5062710;28;20064;-77
2023/08/10 02:24:24;;;;;;;28.08;15.57;;;;;;;;;;5061741;28;20048;-77
2023/08/10 02:26:55;;;;;;;24.65;12.38;;;;;;;;;;5062371;28;20055;-77
2023/08/10 02:29:26;;;;;;;10.25;5.30;;;;;;;;;;5062523;28;20056;-75
2023/08/10 02:31:56;;;;;;;8.27;3.75;;;;;;;;;;5062172;28;20052;-76
2023/08/10 02:34:27;;;;;;;9.27;3.55;;;;;;;;;;5061512;28;20059;-75
2023/08/10 02:36:59;;;;;;;5.97;2.72;;;;;;;;;;5062010;28;20048;-77
2023/08/10 02:39:29;;;;;;;3.78;2.10;;;;;;;;;;5060382;28;20064;-75
2023/08/10 02:42:00;;;;;;;6.00;1.80;;;;;;;;;;5062274;28;20415;-76
2023/08/10 02:44:31;;;;;;;5.85;1.90;;;;;;;;;;5062502;28;20075;-76
2023/08/10 02:47:03;;;;;;;7.30;1.92;;;;;;;;;;5060401;28;20060;-75
2023/08/10 02:49:33;;;;;;;5.20;1.83;;;;;;;;;;5061739;28;20575;-77
2023/08/10 02:52:03;;;;;;;6.25;1.90;;;;;;;;;;5061756;28;20056;-76
2023/08/10 02:54:34;;;;;;;4.10;1.75;;;;;;;;;;5061795;28;20056;-77
2023/08/10 02:57:06;;;;;;;3.00;1.70;;;;;;;;;;5060360;28;20055;-74
2023/08/10 02:59:37;;;;;;;4.68;1.83;;;;;;;;;;5042298;28;20407;-75
2023/08/10 03:02:07;;;;;;;3.25;1.92;;;;;;;;;;5060198;28;20041;-77
2023/08/10 03:04:37;;;;;;;7.50;1.80;;;;;;;;;;5061585;28;20056;-76
2023/08/10 03:07:08;;;;;;;2.50;1.67;;;;;;;;;;5062573;28;20055;-77
2023/08/10 03:09:41;;;;;;;5.05;1.50;;;;;;;;;;5060057;28;20075;-77
2023/08/10 03:12:16;;;;;;;3.58;1.70;;;;;;;;;;5059830;28;20071;-76
2023/08/10 03:14:47;;;;;;;2.35;1.45;;;;;;;;;;5059801;28;20127;-75
2023/08/10 03:17:18;;;;;;;2.13;1.25;;;;;;;;;;5060082;28;20060;-76
2023/08/10 03:19:51;;;;;;;2.03;1.30;;;;;;;;;;5061044;28;20045;-76
2023/08/10 03:22:26;;;;;;;1.92;1.40;;;;;;;;;;5059556;28;20530;-77
2023/08/10 03:24:58;;;;;;;2.30;1.77;;;;;;;;;;5059866;28;20052;-76
2023/08/10 03:27:30;;;;;;;5.35;2.20;;;;;;;;;;5063916;28;20502;-78
2023/08/10 03:30:00;;;;;;;3.30;2.22;;;;;;;;;;5063567;28;20537;-77
2023/08/10 03:32:35;;;;;;;2.83;1.90;;;;;;;;;;5063053;28;20063;-78
2023/08/10 03:35:06;;;;;;;6.55;1.92;;;;;;;;;;5064423;28;20068;-78
2023/08/10 03:37:37;;;;;;;5.18;2.05;;;;;;;;;;5063684;28;20516;-78
2023/08/10 03:40:08;;;;;;;4.43;1.88;;;;;;;;;;5064317;28;20483;-79
2023/08/10 03:42:39;;;;;;;3.10;1.67;;;;;;;;;;5064658;28;20075;-79
2023/08/10 03:45:10;;;;;;;3.53;1.67;;;;;;;;;;5062782;28;20056;-78
2023/08/10 03:47:41;;;;;;;4.47;1.80;;;;;;;;;;5063571;28;20503;-78
2023/08/10 03:50:12;;;;;;;5.30;1.50;;;;;;;;;;5062314;28;20045;-77
2023/08/10 03:52:43;;;;;;;5.70;1.50;;;;;;;;;;5064874;28;20052;-77
2023/08/10 03:55:14;;;;;;;6.88;1.50;;;;;;;;;;5063193;28;20075;-79
2023/08/10 03:57:44;;;;;;;7.35;2.35;;;;;;;;;;5062456;28;20075;-79
2023/08/10 04:00:16;;;;;;;2.80;1.65;;;;;;;;;;5064122;28;20048;-79
2023/08/10 04:02:49;;;;;;;2.88;1.52;;;;;;;;;;5063621;28;20071;-76
2023/08/10 04:05:21;;;;;;;2.60;1.50;;;;;;;;;;5062735;28;20055;-77
2023/08/10 04:07:52;;;;;;;2.40;1.38;;;;;;;;;;5062473;28;20044;-77
2023/08/10 04:10:23;;;;;;;2.60;1.73;;;;;;;;;;5062039;28;20511;-78
2023/08/10 04:12:53;;;;;;;4.30;1.85;;;;;;;;;;5062504;28;20427;-76
2023/08/10 04:15:23;;;;;;;5.30;1.38;;;;;;;;;;5061875;28;21306;-79
2023/08/10 04:17:54;;;;;;;2.15;1.33;;;;;;;;;;5065016;28;20052;-76
2023/08/10 04:20:25;;;;;;;3.97;1.45;;;;;;;;;;5062401;28;20072;-78
2023/08/10 04:22:58;;;;;;;2.45;1.75;;;;;;;;;;5064305;28;20048;-77
2023/08/10 04:25:29;;;;;;;6.90;1.42;;;;;;;;;;5063744;28;20048;-78
2023/08/10 04:27:59;;;;;;;1.83;1.38;;;;;;;;;;5062176;28;20079;-77
2023/08/10 04:30:30;;;;;;;6.57;1.50;;;;;;;;;;5063517;28;20048;-77
2023/08/10 04:33:00;;;;;;;4.60;1.40;;;;;;;;;;5064460;28;20052;-76
2023/08/10 04:35:31;;;;;;;3.33;1.48;;;;;;;;;;5063281;28;20052;-79
2023/08/10 04:38:01;;;;;;;2.85;1.50;;;;;;;;;;5062999;28;20048;-78
2023/08/10 04:40:31;;;;;;;3.88;1.70;;;;;;;;;;5063897;28;20052;-77
2023/08/10 04:43:03;;;;;;;4.40;1.77;;;;;;;;;;5064428;28;20514;-76
2023/08/10 04:45:34;;;;;;;3.30;1.80;;;;;;;;;;5061832;28;20123;-77
2023/08/10 04:48:05;;;;;;;2.40;1.50;;;;;;;;;;5063331;28;20386;-76
2023/08/10 04:50:35;;;;;;;4.60;1.42;;;;;;;;;;5062453;28;20057;-78
2023/08/10 04:53:06;;;;;;;13.05;1.98;;;;;;;;;;5063094;28;20049;-77
2023/08/10 04:55:36;;;;;;;1.80;1.30;;;;;;;;;;5063599;28;20055;-76
2023/08/10 04:58:08;;;;;;;5.22;2.20;;;;;;;;;;5063444;28;20067;-77
2023/08/10 05:00:39;;;;;;;5.45;1.70;;;;;;;;;;5063273;28;20052;-77
2023/08/10 05:03:09;;;;;;;4.57;2.00;;;;;;;;;;5063311;28;20045;-76
2023/08/10 05:05:40;;;;;;;4.40;1.60;;;;;;;;;;5063068;28;20048;-78
2023/08/10 05:08:11;;;;;;;1.85;1.40;;;;;;;;;;5063050;28;20442;-75
2023/08/10 05:10:44;;;;;;;4.57;1.50;;;;;;;;;;5063542;28;20053;-76
2023/08/10 05:13:14;;;;;;;9.32;1.52;;;;;;;;;;5063740;28;20056;-75
2023/08/10 05:15:45;;;;;;;2.42;1.55;;;;;;;;;;5062678;28;20138;-76
2023/08/10 05:18:17;;;;;;;2.28;1.40;;;;;;;;;;5062828;28;20499;-77
2023/08/10 05:20:48;;;;;;;2.42;1.48;;;;;;;;;;5063210;28;20059;-78
2023/08/10 05:23:19;;;;;;;4.35;1.40;;;;;;;;;;5066447;28;20044;-77
2023/08/10 05:25:51;;;;;;;6.75;1.52;;;;;;;;;;5062773;28;20055;-76
2023/08/10 05:28:23;;;;;;;3.92;1.30;;;;;;;;;;5062679;28;20052;-77
2023/08/10 05:30:53;;;;;;;2.63;1.50;;;;;;;;;;5063110;28;20048;-77
2023/08/10 05:33:23;;;;;;;5.90;1.65;;;;;;;;;;5061324;28;20052;-78
2023/08/10 05:35:53;;;;;;;3.20;1.50;;;;;;;;;;5062309;28;20503;-78
2023/08/10 05:38:26;;;;;;;2.10;1.60;;;;;;;;;;5063688;28;20182;-76
2023/08/10 05:40:57;;;;;;;4.43;1.60;;;;;;;;;;5063035;28;20488;-78
2023/08/10 05:43:27;;;;;;;3.78;1.50;;;;;;;;;;5062852;28;20040;-76
2023/08/10 05:45:57;;;;;;;2.17;1.27;;;;;;;;;;5061725;28;20524;-76
2023/08/10 05:48:28;;;;;;;8.35;1.60;;;;;;;;;;5061707;28;20055;-77
2023/08/10 05:50:59;;;;;;;2.78;1.48;;;;;;;;;;5063798;28;20055;-77
2023/08/10 05:53:30;;;;;;;5.55;1.50;;;;;;;;;;5063037;28;20451;-77
2023/08/10 05:56:00;;;;;;;4.72;1.60;;;;;;;;;;5063037;28;20048;-77
2023/08/10 05:58:30;;;;;;;4.63;1.70;;;;;;;;;;5063097;28;20499;-77
2023/08/10 06:01:01;;;;;;;4.13;1.73;;;;;;;;;;5062336;28;20072;-76
2023/08/10 06:03:34;;;;;;;3.35;1.90;;;;;;;;;;5060992;28;20052;-78
2023/08/10 06:06:06;;;;;;;7.70;2.00;;;;;;;;;;5062345;28;20044;-78
2023/08/10 06:08:37;;;;;;;16.73;2.08;;;;;;;;;;5061096;28;20515;-76
2023/08/10 06:11:07;;;;;;;6.00;1.60;;;;;;;;;;5061945;28;20549;-76
2023/08/10 06:13:39;;;;;;;7.40;2.08;;;;;;;;;;5062635;28;20631;-76
2023/08/10 06:16:11;;;;;;;1.90;1.45;;;;;;;;;;5062099;28;20512;-79
2023/08/10 06:18:42;;;;;;;3.08;1.65;;;;;;;;;;5062602;28;20052;-77
2023/08/10 06:21:13;;;;;;;8.52;2.00;;;;;;;;;;5061983;28;20386;-77
2023/08/10 06:23:44;;;;;;;6.13;1.58;;;;;;;;;;5062020;28;20055;-76
2023/08/10 06:26:14;;;;;;;3.80;1.95;;;;;;;;;;5062750;28;20492;-78
2023/08/10 06:28:51;;;;;;;2.53;1.80;;;;;;;;;;5062305;28;20084;-77
2023/08/10 06:31:22;;;;;;;7.88;1.77;;;;;;;;;;5063013;28;20033;-78
2023/08/10 06:33:54;;;;;;;5.53;1.65;;;;;;;;;;5062858;28;20048;-75
2023/08/10 06:36:27;;;;;;;8.65;1.90;;;;;;;;;;5062026;28;20051;-77
2023/08/10 06:38:58;;;;;;;5.13;1.50;;;;;;;;;;5061159;28;20051;-76
2023/08/10 06:41:28;;;;;;;1.92;1.42;;;;;;;;;;5059518;28;20537;-78
2023/08/10 06:43:58;;;;;;;3.95;1.90;;;;;;;;;;5060524;28;20075;-78
2023/08/10 06:46:29;;;;;;;16.23;2.25;;;;;;;;;;5061180;28;20507;-77
2023/08/10 06:48:59;;;;;;;21.45;1.98;;;;;;;;;;5062058;28;20040;-77
2023/08/10 06:51:30;;;;;;;104.57;4.30;;;;;;;;;;5061409;28;20056;-78
2023/08/10 06:54:01;;;;;;;127.97;4.60;;;;;;;;;;5061159;28;20056;-76
2023/08/10 06:56:32;;;;;;;80.30;4.43;;;;;;;;;;5061464;28;20449;-76
2023/08/10 06:59:04;;;;;;;73.28;2.50;;;;;;;;;;5061319;28;20052;-76
2023/08/10 07:01:37;;;;;;;231.15;7.75;;;;;;;;;;5062731;28;20086;-75
2023/08/10 07:04:08;;;;;;;231.50;6.72;;;;;;;;;;5066029;28;20586;-75
2023/08/10 07:06:39;;;;;;;167.60;5.20;;;;;;;;;;5065111;28;20048;-76
2023/08/10 07:09:10;;;;;;;121.85;4.53;;;;;;;;;;5065520;28;20045;-77
2023/08/10 07:11:39;;;;;;;82.45;3.20;;;;;;;;;;5065997;28;20041;-76
2023/08/10 07:14:10;;;;;;;58.15;2.45;;;;;;;;;;5065655;28;20052;-77
2023/08/10 07:16:47;;;;;;;106.50;4.38;;;;;;;;;;5065042;28;20048;-77
2023/08/10 07:19:18;;;;;;;84.22;2.67;;;;;;;;;;5064109;28;20831;-77
2023/08/10 07:21:48;;;;;;;70.85;2.22;;;;;;;;;;5065432;28;20775;-77
2023/08/10 07:24:21;;;;;;;89.13;3.35;;;;;;;;;;5064720;28;20052;-77
2023/08/10 07:26:52;;;;;;;72.25;3.22;;;;;;;;;;5065568;28;20049;-75
2023/08/10 07:29:23;;;;;;;24.45;2.00;;;;;;;;;;5065734;28;20052;-77
2023/08/10 07:32:00;;;;;;;29.55;2.20;;;;;;;;;;5064609;28;20040;-78
2023/08/10 07:34:31;;;;;;;12.43;1.85;;;;;;;;;;5064380;28;20073;-78
2023/08/10 07:37:01;;;;;;;9.48;1.92;;;;;;;;;;5064355;28;20099;-75
2023/08/10 07:39:33;;;;;;;5.40;1.73;;;;;;;;;;5063171;28;20070;-76
2023/08/10 07:42:03;;;;;;;4.13;2.05;;;;;;;;;;5064356;28;20044;-77
2023/08/10 07:44:34;;;;;;;2.50;1.73;;;;;;;;;;5064801;28;20059;-77
2023/08/10 07:47:04;;;;;;;3.97;1.90;;;;;;;;;;5064063;28;20048;-77
2023/08/10 07:49:35;;;;;;;2.47;1.70;;;;;;;;;;5062955;28;20061;-78
2023/08/10 07:52:06;;;;;;;3.70;1.50;;;;;;;;;;5063560;28;20056;-79
2023/08/10 07:54:36;;;;;;;6.30;1.95;;;;;;;;;;5064239;28;20414;-77
2023/08/10 07:57:07;;;;;;;2.78;1.73;;;;;;;;;;5063653;28;20053;-77
2023/08/10 07:59:38;;;;;;;6.80;1.77;;;;;;;;;;5063392;28;20059;-78
2023/08/10 08:02:09;;;;;;;4.72;1.88;;;;;;;;;;5064199;28;20044;-76
2023/08/10 08:04:39;;;;;;;2.30;1.30;;;;;;;;;;5063678;28;20043;-79
2023/08/10 08:07:09;;;;;;;6.93;1.27;;;;;;;;;;5059038;28;20423;-78
2023/08/10 08:09:40;;;;;;;5.00;2.30;;;;;;;;;;5044496;28;20515;-76
2023/08/10 08:12:10;;;;;;;3.95;1.83;;;;;;;;;;5042343;28;20053;-76
2023/08/10 08:14:43;;;;;;;2.47;1.63;;;;;;;;;;5044417;28;20068;-78
2023/08/10 08:17:13;;;;;;;3.00;1.55;;;;;;;;;;5042824;28;20045;-77
2023/08/10 08:19:43;;;;;;;5.70;1.83;;;;;;;;;;5044125;28;20488;-76
2023/08/10 08:22:14;;;;;;;5.88;1.40;;;;;;;;;;5043982;28;20052;-78
2023/08/10 08:24:50;;;;;;;5.57;1.95;;;;;;;;;;5026771;28;20068;-78
2023/08/10 08:27:20;;;;;;;2.70;1.48;;;;;;;;;;5044485;28;20667;-77
2023/08/10 08:29:50;;;;;;;3.90;2.13;;;;;;;;;;5042924;28;20048;-78
2023/08/10 08:32:21;;;;;;;7.05;1.92;;;;;;;;;;5043450;28;20057;-75
2023/08/10 08:35:12;;;;;;;6.93;1.83;;;;;;;;;;5043107;28;20558;-79
2023/08/10 08:37:44;;;;;;;5.25;2.00;;;;;;;;;;5043729;28;20415;-77
2023/08/10 08:40:15;;;;;;;5.95;1.90;;;;;;;;;;5043500;28;20099;-77
2023/08/10 08:42:49;;;;;;;4.13;2.42;;;;;;;;;;5043277;28;20049;-77
2023/08/10 08:45:19;;;;;;;5.55;2.50;;;;;;;;;;5041519;28;20056;-77
2023/08/10 08:47:51;;;;;;;5.20;2.38;;;;;;;;;;5043614;28;20044;-77
2023/08/10 08:50:26;;;;;;;6.85;2.53;;;;;;;;;;5043374;28;20049;-78
2023/08/10 08:53:00;;;;;;;10.52;2.90;;;;;;;;;;5043038;28;20045;-80
2023/08/10 08:55:31;;;;;;;8.88;3.15;;;;;;;;;;5043432;28;20072;-76
2023/08/10 08:58:02;;;;;;;9.05;3.60;;;;;;;;;;5042663;28;20048;-78
2023/08/10 09:00:33;;;;;;;8.68;3.78;;;;;;;;;;5043062;28;20392;-76
2023/08/10 09:03:03;;;;;;;7.22;3.13;;;;;;;;;;5043180;28;20044;-76
2023/08/10 09:05:34;;;;;;;7.00;2.95;;;;;;;;;;5042849;28;20076;-75
2023/08/10 09:08:05;;;;;;;8.07;3.28;;;;;;;;;;5043354;28;20049;-76
2023/08/10 09:10:35;;;;;;;10.57;3.70;;;;;;;;;;5040776;28;20053;-77
2023/08/10 09:13:11;;;;;;;7.00;3.83;;;;;;;;;;5043019;28;20052;-78
2023/08/10 09:15:43;;;;;;;6.07;3.28;;;;;;;;;;5042134;28;20060;-77
2023/08/10 09:18:15;;;;;;;10.48;3.28;;;;;;;;;;5043031;28;20052;-78
2023/08/10 09:20:48;;;;;;;16.67;3.58;;;;;;;;;;5042410;28;20053;-78
2023/08/10 09:23:19;;;;;;;7.57;3.38;;;;;;;;;;5042603;28;20053;-75
2023/08/10 09:25:49;;;;;;;6.15;3.63;;;;;;;;;;5042695;28;20041;-77
2023/08/10 09:28:20;;;;;;;8.40;4.20;;;;;;;;;;5042561;28;20056;-75
2023/08/10 09:30:50;;;;;;;7.55;3.67;;;;;;;;;;5043406;28;20048;-78
2023/08/10 09:33:33;;;;;;;9.93;3.80;;;;;;;;;;5042423;28;20052;-76
2023/08/10 09:36:05;;;;;;;7.75;3.95;;;;;;;;;;5040983;28;20045;-78
2023/08/10 09:38:35;;;;;;;6.05;3.60;;;;;;;;;;5043314;28;20049;-75
2023/08/10 09:41:12;;;;;;;12.07;5.38;;;;;;;;;;5042635;28;20514;-76
2023/08/10 09:43:44;;;;;;;12.75;4.63;;;;;;;;;;5042105;28;20041;-77
2023/08/10 09:46:16;;;;;;;7.18;4.10;;;;;;;;;;5042734;28;20052;-75
2023/08/10 09:48:52;;;;;;;7.85;4.20;;;;;;;;;;5042183;28;20060;-75
2023/08/10 09:51:24;;;;;;;14.10;4.22;;;;;;;;;;5041238;28;20056;-75
2023/08/10 09:53:56;;;;;;;17.60;4.07;;;;;;;;;;5042492;28;20045;-78
2023/08/10 09:56:26;;;;;;;8.45;4.53;;;;;;;;;;5041981;28;20764;-78
2023/08/10 09:58:57;;;;;;;7.68;4.00;;;;;;;;;;5040503;28;20064;-78
2023/08/10 10:01:27;;;;;;;7.55;3.47;;;;;;;;;;5041687;28;20053;-75
2023/08/10 10:03:58;;;;;;;7.07;4.00;;;;;;;;;;5041845;28;20049;-78
2023/08/10 10:06:30;;;;;;;8.90;4.25;;;;;;;;;;5042535;28;20049;-75
2023/08/10 10:09:03;;;;;;;10.43;4.35;;;;;;;;;;5040523;28;20415;-78
2023/08/10 10:11:34;;;;;;;8.68;4.03;;;;;;;;;;5040999;28;20658;-75
2023/08/10 10:14:06;;;;;;;10.40;4.20;;;;;;;;;;5042153;28;20041;-76
2023/08/10 10:16:37;;;;;;;5.85;3.13;;;;;;;;;;5042288;28;20504;-77
2023/08/10 10:19:08;;;;;;;14.13;3.42;;;;;;;;;;5040925;28;20053;-77
2023/08/10 10:21:42;;;;;;;7.60;3.20;;;;;;;;;;5040342;28;20103;-78
2023/08/10 10:24:13;;;;;;;35.60;3.10;;;;;;;;;;5042669;28;20051;-77
2023/08/10 10:27:09;;;;;;;10.73;3.70;;;;;;;;;;5042251;28;20045;-77
2023/08/10 10:29:50;;;;;;;8.02;3.33;;;;;;;;;;5042324;28;20391;-82
2023/08/10 10:32:23;;;;;;;7.75;3.17;;;;;;;;;;5049661;28;20048;-82
2023/08/10 10:34:55;;;;;;;8.50;3.38;;;;;;;;;;5062688;28;20391;-79
2023/08/10 10:37:32;;;;;;;8.38;3.85;;;;;;;;;;5065973;28;20103;-77
2023/08/10 10:40:18;;;;;;;8.15;3.15;;;;;;;;;;5065807;28;20423;-75
2023/08/10 10:43:10;;;;;;;10.52;3.15;;;;;;;;;;5066512;28;20055;-77
2023/08/10 10:45:43;;;;;;;8.73;2.78;;;;;;;;;;5064577;28;20048;-78
2023/08/10 10:48:14;;;;;;;14.43;3.60;;;;;;;;;;5064416;28;20048;-78
2023/08/10 10:50:44;;;;;;;4.80;2.92;;;;;;;;;;5065433;28;20059;-75
2023/08/10 10:53:17;;;;;;;10.38;3.53;;;;;;;;;;5066352;28;20471;-77
2023/08/10 10:55:51;;;;;;;6.20;3.00;;;;;;;;;;5046913;28;20052;-76
2023/08/10 10:58:25;;;;;;;10.98;3.90;;;;;;;;;;5045684;28;20048;-77
2023/08/10 11:00:56;;;;;;;12.40;4.10;;;;;;;;;;5046238;28;20135;-78
2023/08/10 11:03:29;;;;;;;8.52;3.75;;;;;;;;;;5045099;28;20850;-79
2023/08/10 11:06:02;;;;;;;7.30;3.47;;;;;;;;;;5045725;28;20045;-76
2023/08/10 11:08:34;;;;;;;8.40;4.10;;;;;;;;;;5044134;28;20055;-76
2023/08/10 11:11:03;;;;;;;6.32;3.47;;;;;;;;;;5046075;28;20044;-76
2023/08/10 11:13:35;;;;;;;7.97;4.10;;;;;;;;;;5045574;28;20059;-79
2023/08/10 11:16:06;;;;;;;7.55;4.22;;;;;;;;;;5045490;28;20041;-77
2023/08/10 11:18:37;;;;;;;6.30;3.75;;;;;;;;;;5045070;28;20049;-77
2023/08/10 11:21:09;;;;;;;8.32;4.72;;;;;;;;;;5044243;28;20064;-77
2023/08/10 11:23:40;;;;;;;5.40;3.30;;;;;;;;;;5044292;28;21096;-75
2023/08/10 11:26:13;;;;;;;4.20;2.67;;;;;;;;;;5044930;28;20134;-77
2023/08/10 11:28:44;;;;;;;4.50;2.50;;;;;;;;;;5044529;28;20047;-80
2023/08/10 11:31:14;;;;;;;6.22;2.38;;;;;;;;;;5045535;28;20045;-80
2023/08/10 11:33:45;;;;;;;3.35;1.95;;;;;;;;;;5045740;28;20408;-80
2023/08/10 11:36:16;;;;;;;5.38;3.35;;;;;;;;;;5043299;28;20052;-76
2023/08/10 11:38:49;;;;;;;2.70;1.90;;;;;;;;;;5043303;28;20053;-77
2023/08/10 11:41:19;;;;;;;6.53;3.13;;;;;;;;;;5044547;28;20044;-77
2023/08/10 11:43:50;;;;;;;5.50;2.60;;;;;;;;;;5044114;28;20053;-77
2023/08/10 11:46:25;;;;;;;4.10;3.30;;;;;;;;;;5043154;28;20051;-77
2023/08/10 11:48:56;;;;;;;3.13;2.35;;;;;;;;;;5044130;28;20052;-78
2023/08/10 11:51:33;;;;;;;2.25;1.60;;;;;;;;;;5044065;28;20906;-76
2023/08/10 11:54:10;;;;;;;1.55;1.38;;;;;;;;;;5043696;28;20488;-79
2023/08/10 11:56:46;;;;;;;4.50;1.65;;;;;;;;;;5044378;28;20037;-80
2023/08/10 11:59:18;;;;;;;4.75;1.90;;;;;;;;;;5043545;28;20052;-80
2023/08/10 12:01:56;;;;;;;2.35;1.70;;;;;;;;;;5044125;28;20053;-79
2023/08/10 12:04:31;;;;;;;3.50;1.60;;;;;;;;;;5044137;28;20440;-80
2023/08/10 12:07:06;;;;;;;3.83;2.30;;;;;;;;;;5044169;28;20049;-79
2023/08/10 12:09:41;;;;;;;2.03;0.98;;;;;;;;;;5041870;28;20056;-77
2023/08/10 12:12:11;;;;;;;1.73;1.10;;;;;;;;;;5043663;28;20051;-78
2023/08/10 12:14:41;;;;;;;4.25;1.00;;;;;;;;;;5043923;28;20632;-77
2023/08/10 12:17:14;;;;;;;1.42;1.20;;;;;;;;;;5043468;28;20052;-76
2023/08/10 12:19:44;;;;;;;4.18;1.20;;;;;;;;;;5044573;28;20053;-76
2023/08/10 12:22:14;;;;;;;1.70;1.10;;;;;;;;;;5042080;28;20084;-77
2023/08/10 12:24:45;;;;;;;6.63;2.13;;;;;;;;;;5043613;28;20584;-77
2023/08/10 12:27:17;;;;;;;1.67;1.10;;;;;;;;;;5058727;28;20840;-76
2023/08/10 12:29:47;;;;;;;6.68;1.35;;;;;;;;;;5042029;28;20504;-76
2023/08/10 12:32:21;;;;;;;1.27;1.00;;;;;;;;;;5043732;28;20057;-77
2023/08/10 12:34:51;;;;;;;3.03;1.55;;;;;;;;;;5042794;28;20044;-77
2023/08/10 12:37:25;;;;;;;4.57;1.13;;;;;;;;;;5043815;28;20051;-77
2023/08/10 12:39:56;;;;;;;5.68;1.27;;;;;;;;;;5042140;28;20053;-77
2023/08/10 12:42:26;;;;;;;1.25;1.15;;;;;;;;;;5043494;28;20056;-77
2023/08/10 12:44:56;;;;;;;2.67;1.08;;;;;;;;;;5043327;28;20041;-77
2023/08/10 12:47:26;;;;;;;1.90;1.20;;;;;;;;;;5043196;28;20056;-77
2023/08/10 12:49:57;;;;;;;2.85;1.40;;;;;;;;;;5043960;28;20040;-77
2023/08/10 12:52:29;;;;;;;4.45;1.15;;;;;;;;;;5042784;28;20060;-76
2023/08/10 12:55:01;;;;;;;2.38;1.00;;;;;;;;;;5043374;28;20053;-79
2023/08/10 12:57:32;;;;;;;6.65;3.28;;;;;;;;;;5042542;28;20048;-77
2023/08/10 13:00:11;;;;;;;2.30;1.20;;;;;;;;;;5042080;28;20045;-78
2023/08/10 13:02:43;;;;;;;2.95;1.27;;;;;;;;;;5042549;28;20044;-79
2023/08/10 13:05:15;;;;;;;4.75;1.20;;;;;;;;;;5043328;28;20055;-78
2023/08/10 13:07:46;;;;;;;2.53;1.00;;;;;;;;;;5042994;28;20045;-78
2023/08/10 13:10:18;;;;;;;2.80;0.82;;;;;;;;;;5042742;28;20060;-76
2023/08/10 13:12:49;;;;;;;5.28;0.90;;;;;;;;;;5043394;28;20048;-76
2023/08/10 13:15:19;;;;;;;6.10;1.13;;;;;;;;;;5043540;28;20045;-78
2023/08/10 13:17:50;;;;;;;3.92;1.20;;;;;;;;;;5042495;28;20594;-76
2023/08/10 13:20:21;;;;;;;11.80;7.05;;;;;;;;;;5042466;28;20401;-77
2023/08/10 13:22:52;;;;;;;10.77;2.15;;;;;;;;;;5043065;28;20080;-79
2023/08/10 13:25:22;;;;;;;1.42;0.90;;;;;;;;;;5042988;28;20041;-79
2023/08/10 13:27:53;;;;;;;3.63;0.80;;;;;;;;;;5042907;28;20056;-78
2023/08/10 13:30:25;;;;;;;1.67;1.05;;;;;;;;;;5041497;28;20526;-76
2023/08/10 13:32:55;;;;;;;1.88;1.05;;;;;;;;;;5042537;28;20139;-76
2023/08/10 13:35:26;;;;;;;3.08;1.10;;;;;;;;;;5042906;28;20060;-77
2023/08/10 13:37:56;;;;;;;1.67;1.10;;;;;;;;;;5042008;28;20053;-77
2023/08/10 13:40:28;;;;;;;2.17;1.02;;;;;;;;;;5042155;28;20064;-79
2023/08/10 13:42:59;;;;;;;3.33;1.00;;;;;;;;;;5042566;28;20071;-76
2023/08/10 13:45:29;;;;;;;3.55;1.50;;;;;;;;;;5042162;28;20055;-76
2023/08/10 13:47:59;;;;;;;7.20;1.50;;;;;;;;;;5041969;28;20412;-81
2023/08/10 13:50:30;;;;;;;6.15;1.48;;;;;;;;;;5042009;28;20059;-77
2023/08/10 13:53:00;;;;;;;6.90;1.58;;;;;;;;;;5042348;28;20048;-76
2023/08/10 13:55:31;;;;;;;2.55;0.93;;;;;;;;;;5041861;28;20602;-78
2023/08/10 13:58:02;;;;;;;2.28;1.00;;;;;;;;;;5040286;28;20041;-77
2023/08/10 14:00:32;;;;;;;7.03;1.27;;;;;;;;;;5042489;28;20496;-79
2023/08/10 14:03:04;;;;;;;3.85;1.20;;;;;;;;;;5024557;28;20546;-78
2023/08/10 14:05:36;;;;;;;3.88;1.10;;;;;;;;;;5042303;28;20048;-77
2023/08/10 14:08:07;;;;;;;4.97;1.63;;;;;;;;;;5042668;28;20068;-77
2023/08/10 14:10:37;;;;;;;3.72;1.02;;;;;;;;;;5040861;28;20511;-77
2023/08/10 14:13:07;;;;;;;3.85;1.20;;;;;;;;;;5040681;28;20049;-76
2023/08/10 14:15:38;;;;;;;2.67;1.27;;;;;;;;;;5042664;28;20053;-76
2023/08/10 14:18:08;;;;;;;3.83;1.10;;;;;;;;;;5024354;28;20061;-77
2023/08/10 14:20:38;;;;;;;3.70;1.42;;;;;;;;;;5041803;28;20401;-77
2023/08/10 14:23:10;;;;;;;2.45;1.00;;;;;;;;;;5042343;28;20045;-75
2023/08/10 14:25:41;;;;;;;6.45;1.60;;;;;;;;;;5041569;28;20068;-78
2023/08/10 14:28:12;;;;;;;3.15;1.13;;;;;;;;;;5041854;28;20049;-76
2023/08/10 14:30:42;;;;;;;6.40;1.40;;;;;;;;;;5041659;28;20065;-76
2023/08/10 14:33:13;;;;;;;2.08;1.10;;;;;;;;;;5041943;28;20053;-75
2023/08/10 14:35:43;;;;;;;2.67;0.95;;;;;;;;;;5041567;28;20431;-78
2023/08/10 14:38:15;;;;;;;1.80;1.02;;;;;;;;;;5041749;28;20053;-78
2023/08/10 14:40:49;;;;;;;2.80;1.13;;;;;;;;;;5041366;28;20443;-77
2023/08/10 14:43:20;;;;;;;1.17;0.88;;;;;;;;;;5039791;28;20049;-75
2023/08/10 14:45:50;;;;;;;6.03;1.45;;;;;;;;;;5071263;28;20044;-80
2023/08/10 14:48:21;;;;;;;2.13;1.20;;;;;;;;;;5081347;28;20048;-75
2023/08/10 14:50:51;;;;;;;8.23;1.30;;;;;;;;;;5079310;28;20400;-76
2023/08/10 14:53:21;;;;;;;2.92;1.17;;;;;;;;;;5080850;28;20044;-78
2023/08/10 14:55:52;;;;;;;2.33;1.10;;;;;;;;;;5079673;28;20067;-75
2023/08/10 14:58:23;;;;;;;3.42;1.33;;;;;;;;;;5081123;28;20582;-76
2023/08/10 15:00:54;;;;;;;11.13;2.42;;;;;;;;;;5080983;28;20040;-76
2023/08/10 15:03:25;;;;;;;2.63;1.30;;;;;;;;;;5081127;28;20048;-76
2023/08/10 15:05:55;;;;;;;3.00;1.20;;;;;;;;;;5079633;28;20507;-76
2023/08/10 15:08:26;;;;;;;2.33;1.25;;;;;;;;;;5078483;28;20047;-75
2023/08/10 15:11:05;;;;;;;2.55;1.25;;;;;;;;;;5079941;28;20055;-77